sensor_id;sensor_type;location;lat;lon;timestamp;pressure;altitude;pressure_sealevel;temperature;humidity
36062;BME280;22123;52.412;20.970;2023-02-16T00:01:30;101647.31;;;-3.85;100.00
36062;BME280;22123;52.412;20.970;2023-02-16T00:03:57;101564.75;;;-4.36;100.00
36062;BME280;22123;52.412;20.970;2023-02-16T00:06:24;101639.50;;;-3.88;100.00
36062;BME280;22123;52.412;20.970;2023-02-16T00:08:52;101631.66;;;-3.90;100.00
36062;BME280;22123;52.412;20.970;2023-02-16T00:11:27;101626.38;;;-3.90;100.00
36062;BME280;22123;52.412;20.970;2023-02-16T00:13:53;101626.31;;;-3.87;100.00
36062;BME280;22123;52.412;20.970;2023-02-16T00:16:21;101628.00;;;-3.86;100.00
36062;BME280;22123;52.412;20.970;2023-02-16T00:18:47;101446.56;;;-4.93;100.00
36062;BME280;22123;52.412;20.970;2023-02-16T00:21:14;101302.38;;;-5.84;100.00
36062;BME280;22123;52.412;20.970;2023-02-16T00:23:40;101540.94;;;-4.30;100.00
36062;BME280;22123;52.412;20.970;2023-02-16T00:26:14;101614.63;;;-3.78;100.00
36062;BME280;22123;52.412;20.970;2023-02-16T00:28:41;101557.81;;;-4.10;100.00
36062;BME280;22123;52.412;20.970;2023-02-16T00:31:15;101548.94;;;-4.08;100.00
36062;BME280;22123;52.412;20.970;2023-02-16T00:33:40;101437.97;;;-4.71;100.00
36062;BME280;22123;52.412;20.970;2023-02-16T00:36:06;101506.69;;;-4.28;100.00
36062;BME280;22123;52.412;20.970;2023-02-16T00:38:32;101492.13;;;-4.39;100.00
36062;BME280;22123;52.412;20.970;2023-02-16T00:40:58;101536.97;;;-4.16;100.00
36062;BME280;22123;52.412;20.970;2023-02-16T00:43:27;101509.59;;;-4.38;100.00
36062;BME280;22123;52.412;20.970;2023-02-16T00:45:54;101591.94;;;-3.82;100.00
36062;BME280;22123;52.412;20.970;2023-02-16T00:48:20;101406.47;;;-4.98;100.00
36062;BME280;22123;52.412;20.970;2023-02-16T00:50:46;101598.31;;;-3.89;100.00
36062;BME280;22123;52.412;20.970;2023-02-16T00:53:13;101587.84;;;-3.91;100.00
36062;BME280;22123;52.412;20.970;2023-02-16T00:55:40;101476.44;;;-4.68;100.00
36062;BME280;22123;52.412;20.970;2023-02-16T00:58:25;101497.84;;;-4.52;100.00
36062;BME280;22123;52.412;20.970;2023-02-16T01:00:57;101518.97;;;-4.56;100.00
36062;BME280;22123;52.412;20.970;2023-02-16T01:03:27;101514.38;;;-4.49;100.00
36062;BME280;22123;52.412;20.970;2023-02-16T01:05:54;101405.31;;;-5.17;100.00
36062;BME280;22123;52.412;20.970;2023-02-16T01:08:20;101572.84;;;-4.14;100.00
36062;BME280;22123;52.412;20.970;2023-02-16T01:10:47;101498.94;;;-4.60;100.00
36062;BME280;22123;52.412;20.970;2023-02-16T01:13:14;101504.09;;;-4.57;100.00
36062;BME280;22123;52.412;20.970;2023-02-16T01:15:41;101493.06;;;-4.68;100.00
36062;BME280;22123;52.412;20.970;2023-02-16T01:18:07;101383.88;;;-5.32;100.00
36062;BME280;22123;52.412;20.970;2023-02-16T01:20:33;101572.88;;;-4.15;100.00
36062;BME280;22123;52.412;20.970;2023-02-16T01:22:59;101420.06;;;-5.13;100.00
36062;BME280;22123;52.412;20.970;2023-02-16T01:25:25;101409.78;;;-5.19;100.00
36062;BME280;22123;52.412;20.970;2023-02-16T01:27:51;101160.06;;;-6.74;100.00
36062;BME280;22123;52.412;20.970;2023-02-16T01:30:20;101553.81;;;-4.22;100.00
36062;BME280;22123;52.412;20.970;2023-02-16T01:32:47;101547.75;;;-4.24;100.00
36062;BME280;22123;52.412;20.970;2023-02-16T01:35:13;101440.50;;;-4.95;100.00
36062;BME280;22123;52.412;20.970;2023-02-16T01:37:39;101467.31;;;-4.83;100.00
36062;BME280;22123;52.412;20.970;2023-02-16T01:40:05;101412.59;;;-5.26;100.00
36062;BME280;22123;52.412;20.970;2023-02-16T01:42:42;101404.47;;;-5.18;100.00
36062;BME280;22123;52.412;20.970;2023-02-16T01:45:15;101392.53;;;-5.28;100.00
36062;BME280;22123;52.412;20.970;2023-02-16T01:50:15;101493.22;;;-4.73;100.00
36062;BME280;22123;52.412;20.970;2023-02-16T01:52:46;101456.16;;;-4.92;100.00
36062;BME280;22123;52.412;20.970;2023-02-16T01:55:54;101538.63;;;-4.41;100.00
36062;BME280;22123;52.412;20.970;2023-02-16T01:58:34;101534.38;;;-4.45;100.00
36062;BME280;22123;52.412;20.970;2023-02-16T02:03:29;101400.31;;;-5.25;100.00
36062;BME280;22123;52.412;20.970;2023-02-16T02:05:56;101360.13;;;-5.55;100.00
36062;BME280;22123;52.412;20.970;2023-02-16T02:08:45;101023.22;;;-7.70;100.00
36062;BME280;22123;52.412;20.970;2023-02-16T02:11:19;100957.09;;;-8.07;100.00
36062;BME280;22123;52.412;20.970;2023-02-16T02:14:15;101519.88;;;-4.57;100.00
36062;BME280;22123;52.412;20.970;2023-02-16T02:16:39;101532.25;;;-4.60;100.00
36062;BME280;22123;52.412;20.970;2023-02-16T02:19:05;101436.69;;;-5.13;100.00
36062;BME280;22123;52.412;20.970;2023-02-16T02:27:39;101382.13;;;-5.31;100.00
36062;BME280;22123;52.412;20.970;2023-02-16T02:41:58;101501.94;;;-4.44;100.00
36062;BME280;22123;52.412;20.970;2023-02-16T02:44:28;101473.88;;;-4.70;100.00
36062;BME280;22123;52.412;20.970;2023-02-16T02:46:55;101076.34;;;-6.77;100.00
36062;BME280;22123;52.412;20.970;2023-02-16T02:49:26;101152.41;;;-6.50;100.00
36062;BME280;22123;52.412;20.970;2023-02-16T02:51:52;101158.69;;;-6.56;100.00
36062;BME280;22123;52.412;20.970;2023-02-16T02:54:25;100917.75;;;-7.71;100.00
36062;BME280;22123;52.412;20.970;2023-02-16T02:57:16;101270.81;;;-5.52;100.00
36062;BME280;22123;52.412;20.970;2023-02-16T02:59:50;101436.72;;;-4.59;100.00
36062;BME280;22123;52.412;20.970;2023-02-16T03:02:18;101451.13;;;-4.71;100.00
36062;BME280;22123;52.412;20.970;2023-02-16T03:04:47;101218.56;;;-5.87;100.00
36062;BME280;22123;52.412;20.970;2023-02-16T03:07:16;101167.75;;;-6.09;100.00
36062;BME280;22123;52.412;20.970;2023-02-16T03:09:42;101284.25;;;-5.35;100.00
36062;BME280;22123;52.412;20.970;2023-02-16T03:12:09;101191.63;;;-5.92;100.00
36062;BME280;22123;52.412;20.970;2023-02-16T03:14:49;101440.34;;;-4.37;100.00
36062;BME280;22123;52.412;20.970;2023-02-16T03:17:33;100634.72;;;-9.19;100.00
36062;BME280;22123;52.412;20.970;2023-02-16T03:20:07;101343.44;;;-4.98;100.00
36062;BME280;22123;52.412;20.970;2023-02-16T03:22:37;101308.38;;;-5.24;100.00
36062;BME280;22123;52.412;20.970;2023-02-16T03:25:03;101308.66;;;-5.31;100.00
36062;BME280;22123;52.412;20.970;2023-02-16T03:27:34;101345.53;;;-5.09;100.00
36062;BME280;22123;52.412;20.970;2023-02-16T03:30:01;101300.25;;;-5.43;100.00
36062;BME280;22123;52.412;20.970;2023-02-16T03:32:29;101419.53;;;-4.69;100.00
36062;BME280;22123;52.412;20.970;2023-02-16T03:34:55;101254.06;;;-5.77;100.00
36062;BME280;22123;52.412;20.970;2023-02-16T03:37:21;101280.63;;;-5.59;100.00
36062;BME280;22123;52.412;20.970;2023-02-16T03:39:48;101144.56;;;-6.52;100.00
36062;BME280;22123;52.412;20.970;2023-02-16T03:42:14;101346.88;;;-5.22;100.00
36062;BME280;22123;52.412;20.970;2023-02-16T03:44:40;101386.31;;;-4.97;100.00
36062;BME280;22123;52.412;20.970;2023-02-16T03:47:08;101274.75;;;-5.66;100.00
36062;BME280;22123;52.412;20.970;2023-02-16T03:49:33;101400.84;;;-4.87;100.00
36062;BME280;22123;52.412;20.970;2023-02-16T03:51:59;101288.44;;;-5.56;100.00
36062;BME280;22123;52.412;20.970;2023-02-16T03:54:33;101253.38;;;-5.82;100.00
36062;BME280;22123;52.412;20.970;2023-02-16T03:56:59;101222.72;;;-6.06;100.00
36062;BME280;22123;52.412;20.970;2023-02-16T03:59:25;101338.41;;;-5.32;100.00
36062;BME280;22123;52.412;20.970;2023-02-16T04:01:51;101365.09;;;-5.18;100.00
36062;BME280;22123;52.412;20.970;2023-02-16T04:04:17;101238.53;;;-5.83;100.00
36062;BME280;22123;52.412;20.970;2023-02-16T04:06:43;101319.38;;;-5.39;100.00
36062;BME280;22123;52.412;20.970;2023-02-16T04:09:09;101374.31;;;-5.06;100.00
36062;BME280;22123;52.412;20.970;2023-02-16T04:11:35;101300.25;;;-5.43;100.00
36062;BME280;22123;52.412;20.970;2023-02-16T04:14:00;101329.22;;;-5.19;100.00
36062;BME280;22123;52.412;20.970;2023-02-16T04:16:26;101363.72;;;-5.03;100.00
36062;BME280;22123;52.412;20.970;2023-02-16T04:18:52;101276.22;;;-5.57;100.00
36062;BME280;22123;52.412;20.970;2023-02-16T04:21:18;101330.94;;;-5.18;100.00
36062;BME280;22123;52.412;20.970;2023-02-16T04:23:44;101246.88;;;-5.70;100.00
36062;BME280;22123;52.412;20.970;2023-02-16T04:26:12;101211.78;;;-5.94;100.00
36062;BME280;22123;52.412;20.970;2023-02-16T04:28:38;101354.94;;;-5.02;100.00
36062;BME280;22123;52.412;20.970;2023-02-16T04:31:04;101309.69;;;-5.37;100.00
36062;BME280;22123;52.412;20.970;2023-02-16T04:33:30;101329.06;;;-5.14;100.00
36062;BME280;22123;52.412;20.970;2023-02-16T04:35:56;101339.56;;;-5.14;100.00
36062;BME280;22123;52.412;20.970;2023-02-16T04:38:22;101328.31;;;-5.18;100.00
36062;BME280;22123;52.412;20.970;2023-02-16T04:40:47;101347.44;;;-5.14;100.00
36062;BME280;22123;52.412;20.970;2023-02-16T04:43:13;101386.97;;;-4.91;100.00
36062;BME280;22123;52.412;20.970;2023-02-16T04:45:39;101147.78;;;-6.42;100.00
36062;BME280;22123;52.412;20.970;2023-02-16T04:48:05;101313.63;;;-5.50;100.00
36062;BME280;22123;52.412;20.970;2023-02-16T04:50:31;101295.38;;;-5.55;100.00
36062;BME280;22123;52.412;20.970;2023-02-16T04:52:57;101274.78;;;-5.67;100.00
36062;BME280;22123;52.412;20.970;2023-02-16T04:55:23;101244.72;;;-5.85;100.00
36062;BME280;22123;52.412;20.970;2023-02-16T04:57:49;101369.19;;;-5.09;100.00
36062;BME280;22123;52.412;20.970;2023-02-16T05:00:15;101283.50;;;-5.67;100.00
36062;BME280;22123;52.412;20.970;2023-02-16T05:02:41;101131.66;;;-6.58;100.00
36062;BME280;22123;52.412;20.970;2023-02-16T05:05:07;101135.22;;;-6.60;100.00
36062;BME280;22123;52.412;20.970;2023-02-16T05:07:33;101227.13;;;-6.08;100.00
36062;BME280;22123;52.412;20.970;2023-02-16T05:09:59;101152.53;;;-6.55;100.00
36062;BME280;22123;52.412;20.970;2023-02-16T05:12:25;101218.25;;;-6.04;100.00
36062;BME280;22123;52.412;20.970;2023-02-16T05:14:51;101359.06;;;-5.21;100.00
36062;BME280;22123;52.412;20.970;2023-02-16T05:17:19;101361.69;;;-5.21;100.00
36062;BME280;22123;52.412;20.970;2023-02-16T05:19:49;101294.00;;;-5.67;100.00
36062;BME280;22123;52.412;20.970;2023-02-16T05:22:15;101271.84;;;-5.85;100.00
36062;BME280;22123;52.412;20.970;2023-02-16T05:24:42;101298.50;;;-5.70;100.00
36062;BME280;22123;52.412;20.970;2023-02-16T05:27:11;101284.75;;;-5.79;100.00
36062;BME280;22123;52.412;20.970;2023-02-16T05:29:38;101357.84;;;-5.38;100.00
36062;BME280;22123;52.412;20.970;2023-02-16T05:32:04;101259.88;;;-5.94;100.00
36062;BME280;22123;52.412;20.970;2023-02-16T05:34:30;101260.63;;;-5.90;100.00
36062;BME280;22123;52.412;20.970;2023-02-16T05:36:56;101316.63;;;-5.63;100.00
36062;BME280;22123;52.412;20.970;2023-02-16T05:39:22;101261.56;;;-5.93;100.00
36062;BME280;22123;52.412;20.970;2023-02-16T05:41:48;101361.25;;;-5.36;100.00
36062;BME280;22123;52.412;20.970;2023-02-16T05:44:14;101356.94;;;-5.37;100.00
36062;BME280;22123;52.412;20.970;2023-02-16T05:46:41;101211.44;;;-6.38;100.00
36062;BME280;22123;52.412;20.970;2023-02-16T05:49:08;101316.81;;;-5.69;100.00
36062;BME280;22123;52.412;20.970;2023-02-16T05:51:35;101268.28;;;-5.84;100.00
36062;BME280;22123;52.412;20.970;2023-02-16T05:54:01;101218.59;;;-6.15;100.00
36062;BME280;22123;52.412;20.970;2023-02-16T05:56:28;101343.19;;;-5.45;100.00
36062;BME280;22123;52.412;20.970;2023-02-16T05:58:54;101340.50;;;-5.44;100.00
36062;BME280;22123;52.412;20.970;2023-02-16T06:01:20;101243.38;;;-5.97;100.00
36062;BME280;22123;52.412;20.970;2023-02-16T06:03:46;101307.16;;;-5.68;100.00
36062;BME280;22123;52.412;20.970;2023-02-16T06:06:12;101241.66;;;-5.98;100.00
36062;BME280;22123;52.412;20.970;2023-02-16T06:08:39;101348.97;;;-5.34;100.00
36062;BME280;22123;52.412;20.970;2023-02-16T06:11:05;101353.22;;;-5.30;100.00
36062;BME280;22123;52.412;20.970;2023-02-16T06:13:32;101310.28;;;-5.55;100.00
36062;BME280;22123;52.412;20.970;2023-02-16T06:15:58;101292.22;;;-5.66;100.00
36062;BME280;22123;52.412;20.970;2023-02-16T06:18:25;101324.44;;;-5.33;100.00
36062;BME280;22123;52.412;20.970;2023-02-16T06:20:51;101199.06;;;-6.05;100.00
36062;BME280;22123;52.412;20.970;2023-02-16T06:23:17;101119.38;;;-6.56;100.00
36062;BME280;22123;52.412;20.970;2023-02-16T06:25:47;101345.59;;;-5.11;100.00
36062;BME280;22123;52.412;20.970;2023-02-16T06:28:13;101284.44;;;-5.41;100.00
36062;BME280;22123;52.412;20.970;2023-02-16T06:30:39;101261.03;;;-5.47;100.00
36062;BME280;22123;52.412;20.970;2023-02-16T06:33:05;101210.25;;;-5.73;100.00
36062;BME280;22123;52.412;20.970;2023-02-16T06:35:31;101068.94;;;-6.62;100.00
36062;BME280;22123;52.412;20.970;2023-02-16T06:37:57;101111.34;;;-6.23;100.00
36062;BME280;22123;52.412;20.970;2023-02-16T06:40:23;101331.47;;;-4.81;100.00
36062;BME280;22123;52.412;20.970;2023-02-16T06:42:49;101292.59;;;-4.97;100.00
36062;BME280;22123;52.412;20.970;2023-02-16T06:45:16;101282.00;;;-4.94;100.00
36062;BME280;22123;52.412;20.970;2023-02-16T06:47:42;101139.06;;;-5.62;100.00
36062;BME280;22123;52.412;20.970;2023-02-16T06:50:08;101353.09;;;-4.23;100.00
36062;BME280;22123;52.412;20.970;2023-02-16T06:52:35;101222.00;;;-4.81;100.00
36062;BME280;22123;52.412;20.970;2023-02-16T06:55:02;101347.03;;;-3.77;100.00
36062;BME280;22123;52.412;20.970;2023-02-16T06:57:28;101257.84;;;-4.07;100.00
36062;BME280;22123;52.412;20.970;2023-02-16T06:59:54;101246.75;;;-3.92;100.00
36062;BME280;22123;52.412;20.970;2023-02-16T07:02:19;101250.13;;;-3.66;100.00
36062;BME280;22123;52.412;20.970;2023-02-16T07:04:45;101201.47;;;-3.78;100.00
36062;BME280;22123;52.412;20.970;2023-02-16T07:07:11;101300.72;;;-2.94;100.00
36062;BME280;22123;52.412;20.970;2023-02-16T07:09:37;101131.19;;;-3.76;100.00
36062;BME280;22123;52.412;20.970;2023-02-16T07:12:04;101306.56;;;-2.47;100.00
36062;BME280;22123;52.412;20.970;2023-02-16T07:14:31;101257.44;;;-2.68;100.00
36062;BME280;22123;52.412;20.970;2023-02-16T07:16:56;101305.25;;;-2.17;100.00
36062;BME280;22123;52.412;20.970;2023-02-16T07:19:22;101203.28;;;-2.75;100.00
36062;BME280;22123;52.412;20.970;2023-02-16T07:21:48;101237.63;;;-2.37;100.00
36062;BME280;22123;52.412;20.970;2023-02-16T07:24:14;101191.00;;;-2.56;100.00
36062;BME280;22123;52.412;20.970;2023-02-16T07:26:40;101308.31;;;-1.68;100.00
36062;BME280;22123;52.412;20.970;2023-02-16T07:29:06;101296.50;;;-1.61;100.00
36062;BME280;22123;52.412;20.970;2023-02-16T07:31:32;101232.91;;;-1.93;100.00
36062;BME280;22123;52.412;20.970;2023-02-16T07:33:58;101297.31;;;-1.41;100.00
36062;BME280;22123;52.412;20.970;2023-02-16T07:36:24;101311.34;;;-1.39;100.00
36062;BME280;22123;52.412;20.970;2023-02-16T07:38:50;101193.53;;;-1.97;100.00
36062;BME280;22123;52.412;20.970;2023-02-16T07:41:16;101294.19;;;-1.30;100.00
36062;BME280;22123;52.412;20.970;2023-02-16T07:43:42;101251.94;;;-1.49;100.00
36062;BME280;22123;52.412;20.970;2023-02-16T07:46:08;101202.19;;;-1.76;100.00
36062;BME280;22123;52.412;20.970;2023-02-16T07:48:34;101224.41;;;-1.63;100.00
36062;BME280;22123;52.412;20.970;2023-02-16T07:51:00;101250.50;;;-1.37;100.00
36062;BME280;22123;52.412;20.970;2023-02-16T07:53:26;101226.09;;;-1.43;100.00
36062;BME280;22123;52.412;20.970;2023-02-16T07:55:52;101241.34;;;-1.30;100.00
36062;BME280;22123;52.412;20.970;2023-02-16T07:58:18;101247.72;;;-1.17;100.00
36062;BME280;22123;52.412;20.970;2023-02-16T08:00:44;101207.19;;;-1.35;100.00
36062;BME280;22123;52.412;20.970;2023-02-16T08:03:10;101188.72;;;-1.35;100.00
36062;BME280;22123;52.412;20.970;2023-02-16T08:05:35;101196.56;;;-1.16;100.00
36062;BME280;22123;52.412;20.970;2023-02-16T08:08:03;101172.09;;;-1.19;100.00
36062;BME280;22123;52.412;20.970;2023-02-16T08:10:28;101229.66;;;-0.74;100.00
36062;BME280;22123;52.412;20.970;2023-02-16T08:12:54;101194.72;;;-0.80;100.00
36062;BME280;22123;52.412;20.970;2023-02-16T08:15:20;101212.53;;;-0.66;100.00
36062;BME280;22123;52.412;20.970;2023-02-16T08:17:46;101127.72;;;-1.13;100.00
36062;BME280;22123;52.412;20.970;2023-02-16T08:20:12;101235.94;;;-0.43;100.00
36062;BME280;22123;52.412;20.970;2023-02-16T08:22:38;101235.94;;;-0.43;100.00
36062;BME280;22123;52.412;20.970;2023-02-16T08:25:04;101276.53;;;-0.10;100.00
36062;BME280;22123;52.412;20.970;2023-02-16T08:27:30;101221.34;;;-0.34;100.00
36062;BME280;22123;52.412;20.970;2023-02-16T08:29:56;101069.41;;;-1.10;100.00
36062;BME280;22123;52.412;20.970;2023-02-16T08:32:22;101260.34;;;0.12;100.00
36062;BME280;22123;52.412;20.970;2023-02-16T08:34:48;101238.28;;;0.11;100.00
36062;BME280;22123;52.412;20.970;2023-02-16T08:37:14;101198.00;;;-0.10;100.00
36062;BME280;22123;52.412;20.970;2023-02-16T08:39:40;101200.19;;;0.14;100.00
36062;BME280;22123;52.412;20.970;2023-02-16T08:42:05;101284.13;;;0.76;100.00
36062;BME280;22123;52.412;20.970;2023-02-16T08:44:31;101221.69;;;0.40;100.00
36062;BME280;22123;52.412;20.970;2023-02-16T08:46:59;101283.47;;;0.86;100.00
36062;BME280;22123;52.412;20.970;2023-02-16T08:49:25;101281.44;;;0.92;100.00
36062;BME280;22123;52.412;20.970;2023-02-16T08:51:54;101286.56;;;0.95;100.00
36062;BME280;22123;52.412;20.970;2023-02-16T08:54:22;101247.06;;;0.90;100.00
36062;BME280;22123;52.412;20.970;2023-02-16T08:56:49;101243.44;;;0.91;100.00
36062;BME280;22123;52.412;20.970;2023-02-16T08:59:16;101222.88;;;0.80;100.00
36062;BME280;22123;52.412;20.970;2023-02-16T09:01:42;101196.09;;;0.85;100.00
36062;BME280;22123;52.412;20.970;2023-02-16T09:04:08;101233.28;;;1.14;100.00
36062;BME280;22123;52.412;20.970;2023-02-16T09:06:36;101273.69;;;1.48;100.00
36062;BME280;22123;52.412;20.970;2023-02-16T09:09:03;101230.84;;;1.25;100.00
36062;BME280;22123;52.412;20.970;2023-02-16T09:11:29;101218.66;;;1.07;100.00
36062;BME280;22123;52.412;20.970;2023-02-16T09:13:55;101218.84;;;1.03;100.00
36062;BME280;22123;52.412;20.970;2023-02-16T09:16:23;101273.22;;;1.55;100.00
36062;BME280;22123;52.412;20.970;2023-02-16T09:18:49;101179.19;;;1.02;100.00
36062;BME280;22123;52.412;20.970;2023-02-16T09:21:21;101268.00;;;1.68;100.00
36062;BME280;22123;52.412;20.970;2023-02-16T09:23:49;101171.88;;;1.06;100.00
36062;BME280;22123;52.412;20.970;2023-02-16T09:26:16;101277.66;;;1.69;100.00
36062;BME280;22123;52.412;20.970;2023-02-16T09:28:43;101228.56;;;1.33;100.00
36062;BME280;22123;52.412;20.970;2023-02-16T09:31:14;101237.88;;;1.41;100.00
36062;BME280;22123;52.412;20.970;2023-02-16T09:33:43;101226.28;;;1.42;100.00
36062;BME280;22123;52.412;20.970;2023-02-16T09:36:10;101189.22;;;1.26;100.00
36062;BME280;22123;52.412;20.970;2023-02-16T09:38:37;101182.41;;;1.36;100.00
36062;BME280;22123;52.412;20.970;2023-02-16T09:41:13;101269.47;;;2.01;100.00
36062;BME280;22123;52.412;20.970;2023-02-16T09:44:05;101225.31;;;1.86;100.00
36062;BME280;22123;52.412;20.970;2023-02-16T09:46:33;101204.09;;;1.71;100.00
36062;BME280;22123;52.412;20.970;2023-02-16T09:49:01;101185.31;;;1.74;100.00
36062;BME280;22123;52.412;20.970;2023-02-16T09:51:36;101180.34;;;1.97;100.00
36062;BME280;22123;52.412;20.970;2023-02-16T09:54:18;101267.66;;;2.58;100.00
36062;BME280;22123;52.412;20.970;2023-02-16T09:56:55;101202.66;;;2.22;100.00
36062;BME280;22123;52.412;20.970;2023-02-16T09:59:46;101211.72;;;2.32;100.00
36062;BME280;22123;52.412;20.970;2023-02-16T10:07:53;101194.06;;;2.31;100.00
36062;BME280;22123;52.412;20.970;2023-02-16T10:10:23;101264.56;;;2.91;100.00
36062;BME280;22123;52.412;20.970;2023-02-16T10:13:05;101224.88;;;2.88;100.00
36062;BME280;22123;52.412;20.970;2023-02-16T10:15:33;101181.00;;;2.68;100.00
36062;BME280;22123;52.412;20.970;2023-02-16T10:18:27;101242.88;;;3.23;100.00
36062;BME280;22123;52.412;20.970;2023-02-16T10:20:56;101109.72;;;2.35;100.00
36062;BME280;22123;52.412;20.970;2023-02-16T10:28:56;101255.75;;;3.29;100.00
36062;BME280;22123;52.412;20.970;2023-02-16T10:33:57;101242.13;;;3.34;100.00
36062;BME280;22123;52.412;20.970;2023-02-16T10:36:45;101224.34;;;3.47;100.00
36062;BME280;22123;52.412;20.970;2023-02-16T10:39:35;101145.72;;;3.18;100.00
36062;BME280;22123;52.412;20.970;2023-02-16T10:42:22;101234.63;;;3.91;100.00
36062;BME280;22123;52.412;20.970;2023-02-16T10:45:01;101217.53;;;4.06;100.00
36062;BME280;22123;52.412;20.970;2023-02-16T10:47:38;101224.38;;;4.34;100.00
36062;BME280;22123;52.412;20.970;2023-02-16T10:50:09;101132.72;;;4.00;100.00
36062;BME280;22123;52.412;20.970;2023-02-16T10:52:41;101216.63;;;4.67;100.00
36062;BME280;22123;52.412;20.970;2023-02-16T10:55:08;101214.91;;;5.01;100.00
36062;BME280;22123;52.412;20.970;2023-02-16T10:57:35;101191.53;;;5.16;100.00
36062;BME280;22123;52.412;20.970;2023-02-16T11:00:25;101183.28;;;5.65;100.00
36062;BME280;22123;52.412;20.970;2023-02-16T11:02:54;101139.31;;;5.57;100.00
36062;BME280;22123;52.412;20.970;2023-02-16T11:05:36;101089.97;;;5.84;100.00
36062;BME280;22123;52.412;20.970;2023-02-16T11:08:04;101203.03;;;7.05;100.00
36062;BME280;22123;52.412;20.970;2023-02-16T11:10:51;101126.06;;;6.76;100.00
36062;BME280;22123;52.412;20.970;2023-02-16T11:13:33;101190.47;;;7.05;100.00
36062;BME280;22123;52.412;20.970;2023-02-16T11:16:05;101191.34;;;7.06;100.00
36062;BME280;22123;52.412;20.970;2023-02-16T11:18:42;101193.75;;;7.09;100.00
36062;BME280;22123;52.412;20.970;2023-02-16T11:21:10;101110.13;;;6.95;100.00
36062;BME280;22123;52.412;20.970;2023-02-16T11:23:40;101127.78;;;7.08;100.00
36062;BME280;22123;52.412;20.970;2023-02-16T11:28:38;101154.22;;;7.22;100.00
36062;BME280;22123;52.412;20.970;2023-02-16T11:31:15;101180.34;;;7.61;100.00
36062;BME280;22123;52.412;20.970;2023-02-16T11:36:41;101181.81;;;7.84;100.00
36062;BME280;22123;52.412;20.970;2023-02-16T11:39:23;101173.72;;;7.65;100.00
36062;BME280;22123;52.412;20.970;2023-02-16T11:42:02;101174.38;;;7.57;100.00
36062;BME280;22123;52.412;20.970;2023-02-16T11:44:36;101170.91;;;7.36;100.00
36062;BME280;22123;52.412;20.970;2023-02-16T11:47:06;101165.69;;;7.34;100.00
36062;BME280;22123;52.412;20.970;2023-02-16T11:49:37;101165.59;;;7.45;100.00
36062;BME280;22123;52.412;20.970;2023-02-16T11:52:28;101129.84;;;7.25;100.00
36062;BME280;22123;52.412;20.970;2023-02-16T11:54:56;101164.47;;;7.48;100.00
36062;BME280;22123;52.412;20.970;2023-02-16T11:57:30;101168.34;;;7.34;100.00
36062;BME280;22123;52.412;20.970;2023-02-16T11:59:58;101162.84;;;7.26;100.00
36062;BME280;22123;52.412;20.970;2023-02-16T12:05:42;101161.75;;;7.07;100.00
36062;BME280;22123;52.412;20.970;2023-02-16T12:13:40;101153.47;;;6.89;100.00
36062;BME280;22123;52.412;20.970;2023-02-16T12:17:12;101156.03;;;6.70;100.00
36062;BME280;22123;52.412;20.970;2023-02-16T12:22:50;101154.38;;;6.78;100.00
36062;BME280;22123;52.412;20.970;2023-02-16T12:33:38;101146.00;;;7.45;100.00
36062;BME280;22123;52.412;20.970;2023-02-16T12:36:40;101154.47;;;7.19;100.00
36062;BME280;22123;52.412;20.970;2023-02-16T12:39:45;101145.22;;;7.02;100.00
36062;BME280;22123;52.412;20.970;2023-02-16T12:45:21;101051.31;;;6.53;100.00
36062;BME280;22123;52.412;20.970;2023-02-16T12:47:53;101137.78;;;7.06;100.00
36062;BME280;22123;52.412;20.970;2023-02-16T12:50:23;101134.56;;;7.12;100.00
36062;BME280;22123;52.412;20.970;2023-02-16T12:53:04;101085.00;;;6.87;100.00
36062;BME280;22123;52.412;20.970;2023-02-16T12:55:37;101025.38;;;6.54;100.00
36062;BME280;22123;52.412;20.970;2023-02-16T13:00:46;101137.22;;;7.33;100.00
36062;BME280;22123;52.412;20.970;2023-02-16T13:05:49;101095.38;;;7.01;100.00
36062;BME280;22123;52.412;20.970;2023-02-16T13:08:27;101058.03;;;6.78;100.00
36062;BME280;22123;52.412;20.970;2023-02-16T13:11:09;101109.22;;;7.16;100.00
36062;BME280;22123;52.412;20.970;2023-02-16T13:13:36;101088.50;;;7.18;100.00
36062;BME280;22123;52.412;20.970;2023-02-16T13:18:38;101127.44;;;7.53;100.00
36062;BME280;22123;52.412;20.970;2023-02-16T13:43:28;101108.47;;;7.95;100.00
36062;BME280;22123;52.412;20.970;2023-02-16T13:45:55;101033.06;;;7.49;100.00
36062;BME280;22123;52.412;20.970;2023-02-16T13:48:38;101113.25;;;7.92;100.00
36062;BME280;22123;52.412;20.970;2023-02-16T13:51:43;101107.44;;;7.77;100.00
36062;BME280;22123;52.412;20.970;2023-02-16T13:54:34;101048.25;;;7.29;100.00
36062;BME280;22123;52.412;20.970;2023-02-16T13:57:01;101081.44;;;7.48;100.00
36062;BME280;22123;52.412;20.970;2023-02-16T14:01:54;101090.53;;;7.36;100.00
36062;BME280;22123;52.412;20.970;2023-02-16T14:06:49;101104.16;;;7.13;100.00
36062;BME280;22123;52.412;20.970;2023-02-16T14:14:37;101103.94;;;6.74;100.00
36062;BME280;22123;52.412;20.970;2023-02-16T14:25:02;101081.81;;;6.30;100.00
36062;BME280;22123;52.412;20.970;2023-02-16T14:30:47;101105.31;;;6.26;100.00
36062;BME280;22123;52.412;20.970;2023-02-16T14:38:21;101077.84;;;5.80;100.00
36062;BME280;22123;52.412;20.970;2023-02-16T14:40:56;101114.84;;;5.96;100.00
36062;BME280;22123;52.412;20.970;2023-02-16T15:00:26;100941.78;;;4.46;100.00
36062;BME280;22123;52.412;20.970;2023-02-16T15:03:03;100995.63;;;4.74;100.00
36062;BME280;22123;52.412;20.970;2023-02-16T15:05:33;101027.03;;;4.81;100.00